createdAt,value
2018-06-14T00:00:31.938Z,13.44
2018-06-14T00:03:01.397Z,13.41
2018-06-14T00:05:31.029Z,13.49
2018-06-14T00:08:00.584Z,13.49
2018-06-14T00:10:30.176Z,13.47
2018-06-14T00:13:00.069Z,13.47
2018-06-14T00:15:29.893Z,13.44
2018-06-14T00:17:59.904Z,13.43
2018-06-14T00:20:29.308Z,13.46
2018-06-14T00:22:58.796Z,13.47
2018-06-14T00:25:28.726Z,13.46
2018-06-14T00:27:58.436Z,13.51
2018-06-14T00:30:28.646Z,13.56
2018-06-14T00:32:58.366Z,13.59
2018-06-14T00:35:28.310Z,13.60
2018-06-14T00:37:59.221Z,13.63
2018-06-14T00:40:29.021Z,13.54
2018-06-14T00:42:59.137Z,13.66
2018-06-14T00:45:29.064Z,13.74
2018-06-14T00:47:58.589Z,13.68
2018-06-14T00:50:28.193Z,13.54
2018-06-14T00:52:58.624Z,13.64
2018-06-14T00:55:28.607Z,13.75
2018-06-14T00:57:58.283Z,13.85
2018-06-14T01:00:28.089Z,13.95
2018-06-14T01:02:57.611Z,13.82
2018-06-14T01:05:27.941Z,13.93
2018-06-14T01:07:57.784Z,13.88
2018-06-14T01:10:27.234Z,13.75
2018-06-14T01:12:57.307Z,13.67
2018-06-14T01:15:27.119Z,13.81
2018-06-14T01:17:56.632Z,13.89
2018-06-14T01:20:26.202Z,13.93
2018-06-14T01:22:55.758Z,13.85
2018-06-14T01:25:25.344Z,13.82
2018-06-14T01:27:54.717Z,13.85
2018-06-14T01:30:24.069Z,13.93
2018-06-14T01:32:53.521Z,13.91
2018-06-14T01:35:22.854Z,13.93
2018-06-14T01:38:03.491Z,13.94
2018-06-14T01:40:33.148Z,13.92
2018-06-14T01:43:02.735Z,13.93
2018-06-14T01:45:32.445Z,13.96
2018-06-14T01:48:01.817Z,14.00
2018-06-14T01:50:31.257Z,13.95
2018-06-14T01:53:01.475Z,13.92
2018-06-14T01:55:32.587Z,13.99
2018-06-14T01:58:03.194Z,14.06
2018-06-14T02:00:32.741Z,14.05
2018-06-14T02:03:02.414Z,13.96
2018-06-14T02:05:32.100Z,13.89
2018-06-14T02:08:01.731Z,13.83
2018-06-14T02:10:31.315Z,13.70
2018-06-14T02:13:00.961Z,13.72
2018-06-14T02:15:30.740Z,13.77
2018-06-14T02:18:00.662Z,13.72
2018-06-14T02:20:30.525Z,13.67
2018-06-14T02:22:59.988Z,13.65
2018-06-14T02:25:29.795Z,13.53
2018-06-14T02:27:59.668Z,13.72
2018-06-14T02:30:29.266Z,13.76
2018-06-14T02:32:58.815Z,13.82
2018-06-14T02:35:28.843Z,13.84
2018-06-14T02:37:58.386Z,13.85
2018-06-14T02:40:28.764Z,13.92
2018-06-14T02:42:58.452Z,13.97
2018-06-14T02:45:28.697Z,13.95
2018-06-14T02:47:58.517Z,13.95
2018-06-14T02:50:28.886Z,13.89
2018-06-14T02:52:58.817Z,13.84
2018-06-14T02:55:28.815Z,13.69
2018-06-14T02:57:59.145Z,13.65
2018-06-14T03:00:28.669Z,13.67
2018-06-14T03:02:58.100Z,13.56
2018-06-14T03:05:27.687Z,13.60
2018-06-14T03:07:57.291Z,13.52
2018-06-14T03:10:26.688Z,13.60
2018-06-14T03:12:56.544Z,13.59
2018-06-14T03:15:27.485Z,13.58
2018-06-14T03:17:57.199Z,13.60
2018-06-14T03:20:28.548Z,13.56
2018-06-14T03:22:59.306Z,13.56
2018-06-14T03:25:28.948Z,13.58
2018-06-14T03:27:58.657Z,13.51
2018-06-14T03:30:28.178Z,13.43
2018-06-14T03:32:58.047Z,13.37
2018-06-14T03:35:27.562Z,13.36
2018-06-14T03:37:56.932Z,13.37
2018-06-14T03:40:26.455Z,13.36
2018-06-14T03:42:55.822Z,13.41
2018-06-14T03:45:29.508Z,13.43
2018-06-14T03:47:59.032Z,13.38
2018-06-14T03:50:29.668Z,13.42
2018-06-14T03:52:59.660Z,13.31
2018-06-14T03:55:29.147Z,13.35
2018-06-14T03:57:58.641Z,13.43
2018-06-14T04:00:28.854Z,13.42
2018-06-14T04:02:58.366Z,13.47
2018-06-14T04:05:28.536Z,13.47
2018-06-14T04:07:58.172Z,13.51
2018-06-14T04:10:27.645Z,13.56
2018-06-14T04:12:57.204Z,13.63
2018-06-14T04:15:26.841Z,13.63
2018-06-14T04:18:02.867Z,13.64
2018-06-14T04:20:33.809Z,13.78
2018-06-14T04:23:03.251Z,13.84
2018-06-14T04:25:33.183Z,13.90
2018-06-14T04:28:02.982Z,14.02
2018-06-14T04:30:32.608Z,14.06
2018-06-14T04:33:02.222Z,14.05
2018-06-14T04:35:32.783Z,14.09
2018-06-14T04:38:02.416Z,14.05
2018-06-14T04:40:31.817Z,14.00
2018-06-14T04:43:01.448Z,14.15
2018-06-14T04:45:30.929Z,14.19
2018-06-14T04:48:00.535Z,14.19
2018-06-14T04:50:31.012Z,14.32
2018-06-14T04:53:00.801Z,14.39
2018-06-14T04:55:30.459Z,14.47
2018-06-14T04:58:00.091Z,14.52
2018-06-14T05:00:29.511Z,14.52
2018-06-14T05:02:59.145Z,14.55
2018-06-14T05:05:29.022Z,14.49
2018-06-14T05:07:58.560Z,14.44
2018-06-14T05:10:29.559Z,14.46
2018-06-14T05:13:01.055Z,14.54
2018-06-14T05:15:30.867Z,14.67
2018-06-14T05:18:00.760Z,14.70
2018-06-14T05:20:30.409Z,14.67
2018-06-14T05:23:00.613Z,14.69
2018-06-14T05:25:30.623Z,14.80
2018-06-14T05:28:00.499Z,15.00
2018-06-14T05:30:30.050Z,15.26
2018-06-14T05:32:59.964Z,15.41
2018-06-14T05:35:30.026Z,15.51
2018-06-14T05:37:59.584Z,15.55
2018-06-14T05:40:29.593Z,15.58
2018-06-14T05:43:00.996Z,15.61
2018-06-14T05:45:30.667Z,15.55
2018-06-14T05:48:00.251Z,15.56
2018-06-14T05:50:29.837Z,15.50
2018-06-14T05:52:59.262Z,15.49
2018-06-14T05:55:29.074Z,15.56
2018-06-14T05:58:05.738Z,15.71
2018-06-14T06:00:35.973Z,15.88
2018-06-14T06:03:05.836Z,15.92
2018-06-14T06:05:36.497Z,16.07
2018-06-14T06:08:06.207Z,16.10
2018-06-14T06:10:36.022Z,16.05
2018-06-14T06:13:06.376Z,16.20
2018-06-14T06:15:36.090Z,16.27
2018-06-14T06:18:05.582Z,16.32
2018-06-14T06:20:35.309Z,16.38
2018-06-14T06:23:05.020Z,16.35
2018-06-14T06:25:34.720Z,16.45
2018-06-14T06:28:04.850Z,16.53
2018-06-14T06:30:35.087Z,16.53
2018-06-14T06:33:04.637Z,16.74
2018-06-14T06:35:34.899Z,16.84
2018-06-14T06:38:04.398Z,16.84
2018-06-14T06:40:33.853Z,16.80
2018-06-14T06:43:04.371Z,16.90
2018-06-14T06:45:33.964Z,17.05
2018-06-14T06:48:03.805Z,17.16
2018-06-14T06:50:33.455Z,17.14
2018-06-14T06:53:03.421Z,17.20
2018-06-14T06:55:33.355Z,17.19
2018-06-14T06:58:03.170Z,17.25
2018-06-14T07:00:32.981Z,17.39
2018-06-14T07:03:03.401Z,17.57
2018-06-14T07:05:33.672Z,17.78
2018-06-14T07:08:03.554Z,18.07
2018-06-14T07:10:33.502Z,18.12
2018-06-14T07:13:03.201Z,18.25
2018-06-14T07:15:33.190Z,18.21
2018-06-14T07:18:03.136Z,18.13
2018-06-14T07:20:32.844Z,18.02
2018-06-14T07:23:03.139Z,17.87
2018-06-14T07:25:32.957Z,17.88
2018-06-14T07:28:02.667Z,18.00
2018-06-14T07:30:32.291Z,18.17
2018-06-14T07:33:02.257Z,18.11
2018-06-14T07:35:32.524Z,18.19
2018-06-14T07:38:02.601Z,18.45
2018-06-14T07:40:32.164Z,18.59
2018-06-14T07:43:02.464Z,18.88
2018-06-14T07:45:32.631Z,18.82
2018-06-14T07:48:03.344Z,18.83
2018-06-14T07:50:32.993Z,19.02
2018-06-14T07:53:02.756Z,19.11
2018-06-14T07:55:32.140Z,19.09
2018-06-14T07:58:02.976Z,19.23
2018-06-14T08:00:32.533Z,19.16
2018-06-14T08:03:02.207Z,19.09
2018-06-14T08:05:31.868Z,19.18
2018-06-14T08:08:01.780Z,19.14
2018-06-14T08:10:31.519Z,19.21
2018-06-14T08:13:01.026Z,19.36
2018-06-14T08:15:30.541Z,19.60
2018-06-14T08:18:00.372Z,19.39
2018-06-14T08:20:30.393Z,19.52
2018-06-14T08:23:00.197Z,19.58
2018-06-14T08:25:30.272Z,19.78
2018-06-14T08:28:00.115Z,20.01
2018-06-14T08:30:29.739Z,20.28
2018-06-14T08:32:59.901Z,20.24
2018-06-14T08:35:29.755Z,20.56
2018-06-14T08:37:59.430Z,20.63
2018-06-14T08:40:29.694Z,20.56
2018-06-14T08:42:59.441Z,20.46
2018-06-14T08:45:29.106Z,20.55
2018-06-14T08:47:58.961Z,20.56
2018-06-14T08:50:28.802Z,20.37
2018-06-14T08:52:58.180Z,20.38
2018-06-14T08:55:28.839Z,20.35
2018-06-14T08:57:58.517Z,20.42
2018-06-14T09:00:29.452Z,20.59
2018-06-14T09:02:58.947Z,20.55
2018-06-14T09:05:28.901Z,20.68
2018-06-14T09:07:58.642Z,20.70
2018-06-14T09:10:28.298Z,20.64
2018-06-14T09:12:57.678Z,20.50
2018-06-14T09:15:27.876Z,20.72
2018-06-14T09:17:57.451Z,20.79
2018-06-14T09:20:26.880Z,20.94
2018-06-14T09:22:56.773Z,21.12
2018-06-14T09:25:26.633Z,21.16
2018-06-14T09:27:56.350Z,21.29
2018-06-14T09:30:26.389Z,21.36
2018-06-14T09:32:55.641Z,21.47
2018-06-14T09:35:25.525Z,21.43
2018-06-14T09:37:54.791Z,21.45
2018-06-14T09:40:24.247Z,21.41
2018-06-14T09:42:53.715Z,21.32
2018-06-14T09:45:23.365Z,21.46
2018-06-14T09:47:52.796Z,22.17
2018-06-14T09:50:22.156Z,22.94
2018-06-14T09:52:54.218Z,23.43
2018-06-14T09:55:27.297Z,23.97
2018-06-14T09:57:56.764Z,24.23
2018-06-14T10:00:30.650Z,24.11
2018-06-14T10:03:00.301Z,24.67
2018-06-14T10:05:29.818Z,25.12
2018-06-14T10:07:59.268Z,25.52
2018-06-14T10:10:29.971Z,24.60
2018-06-14T10:12:59.438Z,25.05
2018-06-14T10:15:28.974Z,25.29
2018-06-14T10:17:58.761Z,24.96
2018-06-14T10:20:28.870Z,24.45
2018-06-14T10:22:59.327Z,24.53
2018-06-14T10:25:28.811Z,25.24
2018-06-14T10:27:59.293Z,25.63
2018-06-14T10:30:29.638Z,25.47
2018-06-14T10:32:59.185Z,25.05
2018-06-14T10:35:29.118Z,25.05
2018-06-14T10:37:58.858Z,25.48
2018-06-14T10:40:28.521Z,25.78
2018-06-14T10:43:02.077Z,24.82
2018-06-14T10:45:32.261Z,24.09
2018-06-14T10:48:02.227Z,24.32
2018-06-14T10:50:31.961Z,24.68
2018-06-14T10:53:01.971Z,24.31
2018-06-14T10:55:33.427Z,23.74
2018-06-14T10:58:03.297Z,23.55
2018-06-14T11:00:34.852Z,23.51
2018-06-14T11:03:05.709Z,23.37
2018-06-14T11:05:35.467Z,23.74
2018-06-14T11:08:05.173Z,23.57
2018-06-14T11:10:34.845Z,22.95
2018-06-14T11:13:04.397Z,22.87
2018-06-14T11:15:33.845Z,23.59
2018-06-14T11:18:03.305Z,24.79
2018-06-14T11:20:33.373Z,25.55
2018-06-14T11:23:02.921Z,25.86
2018-06-14T11:25:34.416Z,25.71
2018-06-14T11:28:04.335Z,25.93
2018-06-14T11:30:34.602Z,26.08
2018-06-14T11:33:04.939Z,26.12
2018-06-14T11:35:34.713Z,25.84
2018-06-14T11:38:04.535Z,26.21
2018-06-14T11:40:35.601Z,26.05
2018-06-14T11:43:05.312Z,25.77
2018-06-14T11:45:46.620Z,26.32
2018-06-14T11:48:15.916Z,26.70
2018-06-14T11:50:45.230Z,27.16
2018-06-14T11:53:15.034Z,27.03
2018-06-14T11:55:45.261Z,27.31
2018-06-14T11:58:15.617Z,26.78
2018-06-14T12:00:45.992Z,26.82
2018-06-14T12:03:17.469Z,26.81
2018-06-14T12:05:47.707Z,25.95
2018-06-14T12:08:18.655Z,25.74
2018-06-14T12:10:49.376Z,25.95
2018-06-14T12:13:18.980Z,26.08
2018-06-14T12:15:48.505Z,25.59
2018-06-14T12:18:19.306Z,25.09
2018-06-14T12:20:49.149Z,24.88
2018-06-14T12:23:18.893Z,25.14
2018-06-14T12:25:48.714Z,25.92
2018-06-14T12:28:19.510Z,25.49
2018-06-14T12:30:49.587Z,24.81
2018-06-14T12:33:21.132Z,25.07
2018-06-14T12:35:50.855Z,24.96
2018-06-14T12:38:20.216Z,24.62
2018-06-14T12:40:49.534Z,25.29
2018-06-14T12:43:18.930Z,24.87
2018-06-14T12:45:50.037Z,25.51
2018-06-14T12:48:19.370Z,25.71
2018-06-14T12:50:48.772Z,26.31
2018-06-14T12:53:18.113Z,26.33
2018-06-14T12:55:53.162Z,26.25
2018-06-14T12:58:22.449Z,26.54
2018-06-14T13:00:51.923Z,27.20
2018-06-14T13:03:21.268Z,27.15
2018-06-14T13:05:50.630Z,26.34
2018-06-14T13:08:19.875Z,25.64
2018-06-14T13:10:49.342Z,26.27
2018-06-14T13:13:18.616Z,26.37
2018-06-14T13:15:47.991Z,27.27
2018-06-14T13:18:17.942Z,27.51
2018-06-14T13:20:50.722Z,27.49
2018-06-14T13:23:23.532Z,27.71
2018-06-14T13:25:53.292Z,27.51
2018-06-14T13:28:23.093Z,27.03
2018-06-14T13:30:53.735Z,26.50
2018-06-14T13:33:23.712Z,26.29
2018-06-14T13:35:53.353Z,26.30
2018-06-14T13:38:24.411Z,26.15
2018-06-14T13:40:54.543Z,26.11
2018-06-14T13:43:26.414Z,25.97
2018-06-14T13:45:55.760Z,26.05
2018-06-14T13:48:25.138Z,26.03
2018-06-14T13:50:54.853Z,26.52
2018-06-14T13:53:24.096Z,26.63
2018-06-14T13:55:53.440Z,26.64
2018-06-14T13:58:23.337Z,26.73
2018-06-14T14:00:53.407Z,26.54
2018-06-14T14:03:22.477Z,26.28
2018-06-14T14:05:51.711Z,26.71
2018-06-14T14:08:20.940Z,27.36
2018-06-14T14:10:50.191Z,26.92
2018-06-14T14:13:19.418Z,26.73
2018-06-14T14:15:48.698Z,26.68
2018-06-14T14:18:18.000Z,26.99
2018-06-14T14:20:47.691Z,26.91
2018-06-14T14:23:17.002Z,26.54
2018-06-14T14:25:46.201Z,25.90
2018-06-14T14:28:15.526Z,25.97
2018-06-14T14:30:44.854Z,26.17
2018-06-14T14:33:14.113Z,25.71
2018-06-14T14:35:43.461Z,25.29
2018-06-14T14:38:13.166Z,25.50
2018-06-14T14:40:42.614Z,25.48
2018-06-14T14:43:17.043Z,25.39
2018-06-14T14:45:46.695Z,25.49
2018-06-14T14:48:16.121Z,25.49
2018-06-14T14:50:45.980Z,25.52
2018-06-14T14:53:15.387Z,25.17
2018-06-14T14:55:44.530Z,24.95
2018-06-14T14:58:13.774Z,24.63
2018-06-14T15:00:43.289Z,24.23
2018-06-14T15:03:12.889Z,24.03
2018-06-14T15:05:50.521Z,23.96
2018-06-14T15:08:21.882Z,24.02
2018-06-14T15:10:51.314Z,24.04
2018-06-14T15:13:20.593Z,24.27
2018-06-14T15:15:49.918Z,24.36
2018-06-14T15:18:20.626Z,24.42
2018-06-14T15:20:49.882Z,24.56
2018-06-14T15:23:19.393Z,24.50
2018-06-14T15:25:49.482Z,24.52
2018-06-14T15:28:18.723Z,24.54
2018-06-14T15:30:47.953Z,24.59
2018-06-14T15:33:17.581Z,24.42
2018-06-14T15:35:46.817Z,24.37
2018-06-14T15:38:16.089Z,24.57
2018-06-14T15:40:45.444Z,24.45
2018-06-14T15:43:14.688Z,24.36
2018-06-14T15:45:43.994Z,24.30
2018-06-14T15:48:13.816Z,24.41
2018-06-14T15:50:43.254Z,24.30
2018-06-14T15:53:13.033Z,24.13
2018-06-14T15:56:08.329Z,23.86
2018-06-14T15:58:37.933Z,23.46
2018-06-14T16:01:08.794Z,23.22
2018-06-14T16:03:38.449Z,23.25
2018-06-14T16:06:08.066Z,23.22
2018-06-14T16:08:38.022Z,23.06
2018-06-14T16:11:09.095Z,22.99
2018-06-14T16:13:38.805Z,22.80
2018-06-14T16:16:08.772Z,22.62
2018-06-14T16:18:39.312Z,22.28
2018-06-14T16:21:09.200Z,21.86
2018-06-14T16:23:39.076Z,21.44
2018-06-14T16:26:08.833Z,21.14
2018-06-14T16:28:38.389Z,20.91
2018-06-14T16:31:07.800Z,20.69
2018-06-14T16:33:37.342Z,20.48
2018-06-14T16:36:06.815Z,20.14
2018-06-14T16:38:36.324Z,19.77
2018-06-14T16:41:07.620Z,19.42
2018-06-14T16:43:37.651Z,19.13
2018-06-14T16:46:07.115Z,18.77
2018-06-14T16:48:36.893Z,18.51
2018-06-14T16:51:06.373Z,18.29
2018-06-14T16:53:35.878Z,18.02
2018-06-14T16:56:06.479Z,17.84
2018-06-14T16:58:36.661Z,17.70
2018-06-14T17:01:06.960Z,17.53
2018-06-14T17:03:37.051Z,17.45
2018-06-14T17:06:07.370Z,17.35
2018-06-14T17:08:37.345Z,17.27
2018-06-14T17:11:07.541Z,17.17
2018-06-14T17:13:39.048Z,17.04
2018-06-14T17:16:11.041Z,16.97
2018-06-14T17:18:40.714Z,16.92
2018-06-14T17:21:10.146Z,16.86
2018-06-14T17:23:40.063Z,16.81
2018-06-14T17:26:09.583Z,16.78
2018-06-14T17:28:39.217Z,16.72
2018-06-14T17:31:09.728Z,16.71
2018-06-14T17:33:39.141Z,16.69
2018-06-14T17:36:08.882Z,16.71
2018-06-14T17:38:38.446Z,16.75
2018-06-14T17:41:07.901Z,16.77
2018-06-14T17:43:37.361Z,16.79
2018-06-14T17:46:07.188Z,16.85
2018-06-14T17:48:36.472Z,16.98
2018-06-14T17:51:06.124Z,17.01
2018-06-14T17:53:35.917Z,16.99
2018-06-14T17:56:05.704Z,17.06
2018-06-14T17:58:35.374Z,17.08
2018-06-14T18:01:05.696Z,17.12
2018-06-14T18:03:35.817Z,17.19
2018-06-14T18:06:06.019Z,17.20
2018-06-14T18:08:35.791Z,17.22
2018-06-14T18:11:05.629Z,17.29
2018-06-14T18:13:35.313Z,17.35
2018-06-14T18:16:04.926Z,17.30
2018-06-14T18:18:34.359Z,17.33
2018-06-14T18:21:04.056Z,17.39
2018-06-14T18:23:34.136Z,17.43
2018-06-14T18:26:03.697Z,17.41
2018-06-14T18:28:33.429Z,17.41
2018-06-14T18:31:03.828Z,17.50
2018-06-14T18:33:33.391Z,17.50
2018-06-14T18:36:03.049Z,17.53
2018-06-14T18:38:32.949Z,17.56
2018-06-14T18:41:02.531Z,17.48
2018-06-14T18:43:32.203Z,17.54
2018-06-14T18:46:02.226Z,17.52
2018-06-14T18:48:32.402Z,17.46
2018-06-14T18:51:02.027Z,17.44
2018-06-14T18:53:31.621Z,17.44
2018-06-14T18:56:01.809Z,17.42
2018-06-14T18:58:31.671Z,17.40
2018-06-14T19:01:02.086Z,17.31
2018-06-14T19:03:32.199Z,17.38
2018-06-14T19:06:04.125Z,17.42
2018-06-14T19:08:34.288Z,17.43
2018-06-14T19:11:05.088Z,17.49
2018-06-14T19:13:35.761Z,17.48
2018-06-14T19:16:07.938Z,17.51
2018-06-14T19:18:37.905Z,17.56
2018-06-14T19:21:08.085Z,17.52
2018-06-14T19:23:37.810Z,17.40
2018-06-14T19:26:07.893Z,17.45
2018-06-14T19:28:37.908Z,17.43
2018-06-14T19:31:07.553Z,17.43
2018-06-14T19:33:37.534Z,17.48
2018-06-14T19:36:07.395Z,17.43
2018-06-14T19:38:37.811Z,17.42
2018-06-14T19:41:07.547Z,17.41
2018-06-14T19:43:37.868Z,17.35
2018-06-14T19:46:08.207Z,17.39
2018-06-14T19:48:39.950Z,17.33
2018-06-14T19:51:10.090Z,17.40
2018-06-14T19:53:41.892Z,17.26
2018-06-14T19:56:13.642Z,17.31
2018-06-14T19:58:46.141Z,17.33
2018-06-14T20:01:15.451Z,17.19
2018-06-14T20:03:45.378Z,17.10
2018-06-14T20:06:14.805Z,17.05
2018-06-14T20:08:44.263Z,17.05
2018-06-14T20:11:13.764Z,17.06
2018-06-14T20:13:43.743Z,17.02
2018-06-14T20:16:13.318Z,16.99
2018-06-14T20:18:42.828Z,16.80
2018-06-14T20:21:12.581Z,16.89
2018-06-14T20:23:42.110Z,16.89
2018-06-14T20:26:11.640Z,16.88
2018-06-14T20:28:41.869Z,16.96
2018-06-14T20:31:11.445Z,16.96
2018-06-14T20:33:43.033Z,16.97
2018-06-14T20:36:13.482Z,17.01
2018-06-14T20:38:42.990Z,17.05
2018-06-14T20:41:13.623Z,17.06
2018-06-14T20:43:43.162Z,16.98
2018-06-14T20:46:12.479Z,16.92
2018-06-14T20:48:42.024Z,16.89
2018-06-14T20:51:11.743Z,16.87
2018-06-14T20:53:41.473Z,16.88
2018-06-14T20:56:10.944Z,16.93
2018-06-14T20:58:40.922Z,16.85
2018-06-14T21:01:10.585Z,16.88
2018-06-14T21:03:42.028Z,16.79
2018-06-14T21:06:11.739Z,16.74
2018-06-14T21:08:41.416Z,16.65
2018-06-14T21:11:12.698Z,16.54
2018-06-14T21:13:42.446Z,16.49
2018-06-14T21:16:12.115Z,16.41
2018-06-14T21:18:42.238Z,16.35
2018-06-14T21:21:11.785Z,16.34
2018-06-14T21:23:41.191Z,16.30
2018-06-14T21:26:10.930Z,16.27
2018-06-14T21:28:40.641Z,16.27
2018-06-14T21:31:10.501Z,16.30
2018-06-14T21:33:40.384Z,16.27
2018-06-14T21:36:09.846Z,16.28
2018-06-14T21:38:39.881Z,16.28
2018-06-14T21:41:09.762Z,16.33
2018-06-14T21:43:40.686Z,16.35
2018-06-14T21:46:10.374Z,16.37
2018-06-14T21:48:40.441Z,16.37
2018-06-14T21:51:09.845Z,16.37
2018-06-14T21:53:39.658Z,16.38
2018-06-14T21:56:09.464Z,16.36
2018-06-14T21:58:39.075Z,16.38
2018-06-14T22:01:09.038Z,16.37
2018-06-14T22:03:43.752Z,16.42
2018-06-14T22:06:14.049Z,16.41
2018-06-14T22:08:43.328Z,16.43
2018-06-14T22:11:12.631Z,16.41
2018-06-14T22:13:43.257Z,16.43
2018-06-14T22:16:12.598Z,16.41
2018-06-14T22:18:42.063Z,16.39
2018-06-14T22:21:11.696Z,16.39
2018-06-14T22:23:41.019Z,16.39
2018-06-14T22:26:10.306Z,16.35
2018-06-14T22:28:39.673Z,16.32
2018-06-14T22:31:09.110Z,16.29
2018-06-14T22:33:49.976Z,16.28
2018-06-14T22:36:19.326Z,16.28
2018-06-14T22:38:49.423Z,16.26
2018-06-14T22:41:18.685Z,16.19
2018-06-14T22:43:48.429Z,16.18
2018-06-14T22:46:17.694Z,16.13
2018-06-14T22:48:47.866Z,16.07
2018-06-14T22:51:19.813Z,16.03
2018-06-14T22:53:49.110Z,16.01
2018-06-14T22:56:18.369Z,15.98
2018-06-14T22:58:47.640Z,15.94
2018-06-14T23:01:32.203Z,15.91
2018-06-14T23:04:02.494Z,15.87
2018-06-14T23:06:32.269Z,15.86
2018-06-14T23:10:05.638Z,15.87
2018-06-14T23:12:35.055Z,15.83
2018-06-14T23:15:04.758Z,15.84
2018-06-14T23:17:34.366Z,15.87
2018-06-14T23:20:04.438Z,15.92
2018-06-14T23:22:34.200Z,15.94
2018-06-14T23:25:03.923Z,15.88
2018-06-14T23:27:33.541Z,15.86
2018-06-14T23:30:03.058Z,15.87
2018-06-14T23:32:32.834Z,15.80
2018-06-14T23:35:02.401Z,15.77
2018-06-14T23:37:32.312Z,15.72
2018-06-14T23:40:02.507Z,15.67
2018-06-14T23:42:32.175Z,15.59
2018-06-14T23:45:01.867Z,15.59
2018-06-14T23:47:31.751Z,15.55
2018-06-14T23:50:01.413Z,15.54
2018-06-14T23:52:31.342Z,15.51
2018-06-14T23:55:01.016Z,15.50
2018-06-14T23:57:30.896Z,15.46
